Time;durP1;ratioP1;P1;durP2;ratioP2;P2;SDS_P1;SDS_P2;PMS_P1;PMS_P2;Temp;Humidity;BMP_temperature;BMP_pressure;BME280_temperature;BME280_humidity;BME280_pressure;Samples;Min_cycle;Max_cycle;Signal;HPM_P1;HPM_P2
2023/05/11 00:02:47;;;;;;;5.47;1.15;;;15.80;98.50;;;;;;10167811;28;20421;-62
2023/05/11 00:07:37;;;;;;;0.52;0.47;;;15.80;98.60;;;;;;10133324;28;20107;-63
2023/05/11 00:12:28;;;;;;;0.88;0.40;;;15.80;98.60;;;;;;10125980;28;20385;-64
2023/05/11 00:17:19;;;;;;;0.60;0.30;;;15.90;98.70;;;;;;10144597;28;20029;-65
2023/05/11 00:22:10;;;;;;;0.73;0.50;;;15.80;98.70;;;;;;10135668;28;20503;-65
2023/05/11 00:27:00;;;;;;;0.77;0.60;;;15.70;98.70;;;;;;10165166;28;20024;-63
2023/05/11 00:31:51;;;;;;;0.30;0.30;;;15.60;98.80;;;;;;10166853;28;20032;-68
2023/05/11 00:36:42;;;;;;;0.60;0.40;;;15.50;98.90;;;;;;10156612;28;20242;-68
2023/05/11 00:41:33;;;;;;;0.80;0.80;;;15.50;98.90;;;;;;10151540;28;20020;-66
2023/05/11 00:46:23;;;;;;;0.93;0.55;;;15.30;99.30;;;;;;10124660;28;20036;-65
2023/05/11 00:51:14;;;;;;;1.30;0.90;;;15.50;99.20;;;;;;10147250;28;20199;-63
2023/05/11 00:56:05;;;;;;;1.35;0.90;;;15.40;99.50;;;;;;10137744;28;20037;-62
2023/05/11 01:00:56;;;;;;;1.20;0.77;;;15.50;99.50;;;;;;10163163;28;20373;-64
2023/05/11 01:06:05;;;;;;;0.65;0.50;;;15.50;99.60;;;;;;10142708;28;20028;-62
2023/05/11 01:11:06;;;;;;;1.10;0.63;;;15.70;99.50;;;;;;10118644;28;20137;-63
2023/05/11 01:15:57;;;;;;;2.05;0.95;;;15.80;99.50;;;;;;10105844;28;20047;-62
2023/05/11 01:20:50;;;;;;;0.50;0.50;;;15.60;99.50;;;;;;10142053;28;20024;-62
2023/05/11 01:25:47;;;;;;;0.50;0.50;;;15.60;99.70;;;;;;10139469;28;20161;-62
2023/05/11 01:30:48;;;;;;;0.52;0.50;;;15.50;99.70;;;;;;10143921;28;20036;-65
2023/05/11 01:35:47;;;;;;;1.95;0.95;;;15.40;99.70;;;;;;10135180;28;20435;-64
2023/05/11 01:40:40;;;;;;;0.93;0.60;;;15.30;99.90;;;;;;10142487;28;20082;-62
2023/05/11 01:45:34;;;;;;;2.83;0.80;;;15.40;99.90;;;;;;10143842;28;20024;-64
2023/05/11 01:50:26;;;;;;;2.55;1.60;;;15.30;99.90;;;;;;10162253;28;20504;-62
2023/05/11 01:55:20;;;;;;;3.10;0.77;;;15.20;99.90;;;;;;10180834;28;20054;-64
2023/05/11 02:00:11;;;;;;;2.53;0.95;;;15.30;99.90;;;;;;10167923;28;20099;-62
2023/05/11 02:05:05;;;;;;;1.65;1.25;;;15.20;99.90;;;;;;10133071;28;20569;-64
2023/05/11 02:09:57;;;;;;;1.60;0.90;;;15.30;99.90;;;;;;10142240;28;20021;-61
2023/05/11 02:14:50;;;;;;;1.05;0.60;;;15.30;99.90;;;;;;10152354;28;20032;-62
2023/05/11 02:19:42;;;;;;;1.38;0.68;;;15.30;99.90;;;;;;10142619;28;20062;-64
2023/05/11 02:24:34;;;;;;;0.88;0.70;;;15.20;99.90;;;;;;10161758;28;20035;-63
2023/05/11 02:29:25;;;;;;;1.92;1.05;;;15.00;99.90;;;;;;10149879;28;20108;-62
2023/05/11 02:34:23;;;;;;;1.63;0.70;;;14.80;99.90;;;;;;10141357;28;20394;-61
2023/05/11 02:39:20;;;;;;;1.75;0.85;;;14.90;99.90;;;;;;10141039;28;20033;-62
2023/05/11 02:44:14;;;;;;;0.98;0.65;;;14.90;99.90;;;;;;10155103;28;20355;-62
2023/05/11 02:49:08;;;;;;;1.98;0.90;;;14.80;99.90;;;;;;10141351;28;20187;-62
2023/05/11 02:54:00;;;;;;;1.42;0.77;;;14.80;99.90;;;;;;10141534;28;20040;-65
2023/05/11 02:58:51;;;;;;;2.08;1.15;;;14.80;99.90;;;;;;10146944;28;20501;-62
2023/05/11 03:03:41;;;;;;;1.45;0.82;;;14.90;99.90;;;;;;10155588;28;20107;-62
2023/05/11 03:08:33;;;;;;;1.98;0.90;;;15.00;99.90;;;;;;10132774;28;20024;-61
2023/05/11 03:13:24;;;;;;;1.02;0.80;;;15.10;99.90;;;;;;10151904;28;20043;-62
2023/05/11 03:18:17;;;;;;;2.10;0.70;;;15.10;99.90;;;;;;10121792;28;20028;-61
2023/05/11 03:23:09;;;;;;;1.77;1.05;;;15.20;99.90;;;;;;10162674;28;20472;-62
2023/05/11 03:28:01;;;;;;;1.08;0.65;;;15.10;99.90;;;;;;10175788;28;20082;-62
2023/05/11 03:32:52;;;;;;;0.65;0.65;;;15.00;99.90;;;;;;10164939;28;20032;-60
2023/05/11 03:37:44;;;;;;;1.65;0.80;;;14.80;99.90;;;;;;10142801;28;20047;-63
2023/05/11 03:42:36;;;;;;;1.63;0.70;;;14.90;99.90;;;;;;10165321;28;20400;-61
2023/05/11 03:47:28;;;;;;;1.02;0.77;;;14.90;99.90;;;;;;10166035;28;20028;-62
2023/05/11 03:52:20;;;;;;;4.00;0.82;;;14.80;99.90;;;;;;10160188;28;20097;-62
2023/05/11 03:57:10;;;;;;;1.58;0.95;;;14.80;99.90;;;;;;10139074;28;20025;-64
2023/05/11 04:02:02;;;;;;;1.48;1.10;;;14.80;99.90;;;;;;10157824;28;20040;-62
2023/05/11 04:06:53;;;;;;;1.35;0.98;;;14.70;99.90;;;;;;10142386;28;20051;-61
2023/05/11 04:11:43;;;;;;;2.13;0.73;;;14.60;99.90;;;;;;10133624;28;20025;-61
2023/05/11 04:16:34;;;;;;;1.95;0.90;;;14.60;99.90;;;;;;10153580;28;20075;-61
2023/05/11 04:21:25;;;;;;;1.77;0.93;;;14.60;99.90;;;;;;10171464;28;20034;-63
2023/05/11 04:26:15;;;;;;;1.45;0.80;;;14.70;99.90;;;;;;10156221;28;20032;-62
2023/05/11 04:31:06;;;;;;;1.20;1.10;;;14.70;99.90;;;;;;10136878;28;20647;-61
2023/05/11 04:35:57;;;;;;;1.20;0.68;;;14.60;99.90;;;;;;10139016;28;20597;-61
2023/05/11 04:40:49;;;;;;;2.15;1.08;;;14.50;99.90;;;;;;10144634;28;20028;-64
2023/05/11 04:45:40;;;;;;;7.15;1.38;;;14.50;99.90;;;;;;10169670;28;20417;-61
2023/05/11 04:50:31;;;;;;;2.22;1.33;;;14.60;99.90;;;;;;10156825;28;20167;-62
2023/05/11 04:55:22;;;;;;;2.30;1.40;;;14.60;99.90;;;;;;10118960;28;20044;-62
2023/05/11 05:00:13;;;;;;;3.70;1.88;;;14.50;99.90;;;;;;10152509;28;20032;-62
2023/05/11 05:05:04;;;;;;;2.35;1.50;;;14.50;99.90;;;;;;10151844;28;20309;-63
2023/05/11 05:09:55;;;;;;;3.33;1.85;;;14.50;99.90;;;;;;10120580;28;20017;-62
2023/05/11 05:14:45;;;;;;;2.38;1.55;;;14.40;99.90;;;;;;10139659;28;20040;-60
2023/05/11 05:19:36;;;;;;;2.58;1.45;;;14.60;99.90;;;;;;10138724;28;20021;-61
2023/05/11 05:24:27;;;;;;;1.50;0.90;;;14.60;99.90;;;;;;10133884;28;20071;-62
2023/05/11 05:29:17;;;;;;;1.88;1.00;;;14.60;99.90;;;;;;10136508;28;20067;-61
2023/05/11 05:34:08;;;;;;;1.75;0.82;;;14.80;99.90;;;;;;10141498;28;20145;-62
2023/05/11 05:38:59;;;;;;;2.58;1.33;;;14.90;99.90;;;;;;10168555;28;20367;-64
2023/05/11 05:43:50;;;;;;;1.55;1.20;;;14.80;99.90;;;;;;10118981;28;20174;-61
2023/05/11 05:48:41;;;;;;;1.65;1.38;;;14.80;99.90;;;;;;10139152;28;20119;-62
2023/05/11 05:53:31;;;;;;;1.98;1.45;;;14.80;99.90;;;;;;10136478;28;20592;-64
2023/05/11 05:58:22;;;;;;;3.42;1.83;;;14.90;99.90;;;;;;10136020;28;20043;-62
2023/05/11 06:03:13;;;;;;;1.33;1.23;;;14.90;99.90;;;;;;10125893;28;20032;-62
2023/05/11 06:08:04;;;;;;;2.58;1.45;;;14.80;99.90;;;;;;10119478;28;20072;-67
2023/05/11 06:12:55;;;;;;;3.35;1.73;;;14.80;99.90;;;;;;10131649;28;20036;-61
2023/05/11 06:17:46;;;;;;;3.55;1.50;;;14.80;99.90;;;;;;10137725;28;20409;-61
2023/05/11 06:22:36;;;;;;;1.90;1.50;;;14.80;99.90;;;;;;10138972;28;20028;-62
2023/05/11 06:27:27;;;;;;;2.10;1.00;;;14.80;99.90;;;;;;10157881;28;20412;-65
2023/05/11 06:32:18;;;;;;;2.47;1.20;;;14.90;99.90;;;;;;10142726;28;20032;-67
2023/05/11 06:37:08;;;;;;;3.42;1.75;;;14.90;99.90;;;;;;10142755;28;20407;-63
2023/05/11 06:41:59;;;;;;;3.55;2.00;;;15.00;99.90;;;;;;10155527;28;20039;-65
2023/05/11 06:46:50;;;;;;;2.03;1.10;;;15.10;99.90;;;;;;10142183;28;20091;-64
2023/05/11 06:51:40;;;;;;;1.88;1.20;;;15.10;99.90;;;;;;10141823;28;20718;-63
2023/05/11 06:56:32;;;;;;;4.50;1.42;;;15.20;99.90;;;;;;10145298;28;20029;-61
2023/05/11 07:01:23;;;;;;;3.50;1.48;;;15.40;99.90;;;;;;10160155;28;20504;-63
2023/05/11 07:06:14;;;;;;;4.57;1.67;;;15.40;99.90;;;;;;10124745;28;20047;-63
2023/05/11 07:11:05;;;;;;;1.70;1.50;;;15.60;99.90;;;;;;10129050;28;20028;-61
2023/05/11 07:15:56;;;;;;;1.95;1.30;;;15.50;99.90;;;;;;10146364;28;20040;-61
2023/05/11 07:20:49;;;;;;;3.85;1.73;;;15.60;99.90;;;;;;10145871;28;20036;-63
2023/05/11 07:25:39;;;;;;;2.08;1.48;;;15.60;99.90;;;;;;10174356;28;20036;-60
2023/05/11 07:30:30;;;;;;;2.50;1.60;;;15.90;99.90;;;;;;10152151;28;20104;-62
2023/05/11 07:35:21;;;;;;;3.60;2.42;;;16.10;99.90;;;;;;10139966;28;20177;-61
2023/05/11 07:40:12;;;;;;;1.58;1.48;;;15.90;99.90;;;;;;10145838;28;20024;-61
2023/05/11 07:45:03;;;;;;;2.78;2.05;;;16.10;99.90;;;;;;10180770;28;20020;-59
2023/05/11 07:49:53;;;;;;;4.50;1.42;;;16.00;99.90;;;;;;10179839;28;20452;-63
2023/05/11 07:54:44;;;;;;;3.17;1.63;;;16.20;99.90;;;;;;10162732;28;20044;-59
2023/05/11 07:59:35;;;;;;;2.13;1.48;;;16.10;99.90;;;;;;10154007;28;20032;-60
2023/05/11 08:04:27;;;;;;;2.90;1.88;;;16.10;99.90;;;;;;10128079;28;20033;-60
2023/05/11 08:09:17;;;;;;;1.73;1.60;;;16.30;99.90;;;;;;10120445;28;20033;-59
2023/05/11 08:14:08;;;;;;;5.75;1.42;;;16.20;99.90;;;;;;10108897;28;20127;-61
2023/05/11 08:18:59;;;;;;;2.65;1.80;;;16.10;99.90;;;;;;10156748;28;20032;-62
2023/05/11 08:23:49;;;;;;;4.05;1.58;;;16.00;99.90;;;;;;10140601;28;20464;-62
2023/05/11 08:28:40;;;;;;;2.70;1.50;;;15.90;99.90;;;;;;10159312;28;20102;-60
2023/05/11 08:33:30;;;;;;;4.10;2.08;;;15.90;99.90;;;;;;10165047;28;20427;-59
2023/05/11 08:38:21;;;;;;;2.47;1.58;;;16.00;99.90;;;;;;10133138;28;20032;-65
2023/05/11 08:43:13;;;;;;;2.80;2.00;;;16.20;99.90;;;;;;10131725;28;20040;-63
2023/05/11 08:48:04;;;;;;;2.92;1.80;;;16.00;99.90;;;;;;10147639;28;20032;-63
2023/05/11 08:52:55;;;;;;;4.35;2.40;;;16.20;99.90;;;;;;10138490;28;20049;-64
2023/05/11 08:57:46;;;;;;;4.55;2.70;;;16.40;99.90;;;;;;10155992;28;20393;-60
2023/05/11 09:02:37;;;;;;;6.88;2.38;;;16.30;99.90;;;;;;10132016;28;20098;-61
2023/05/11 09:07:28;;;;;;;3.75;2.45;;;16.40;99.90;;;;;;10136104;28;20028;-63
2023/05/11 09:12:19;;;;;;;4.90;2.10;;;16.40;99.90;;;;;;10128433;28;20374;-63
2023/05/11 09:17:10;;;;;;;4.40;1.90;;;16.20;99.90;;;;;;10151715;28;20036;-64
2023/05/11 09:22:01;;;;;;;3.45;1.85;;;16.30;99.90;;;;;;10146204;28;20036;-66
2023/05/11 09:27:08;;;;;;;5.20;2.15;;;16.50;99.90;;;;;;10131637;28;20048;-65
2023/05/11 09:31:59;;;;;;;2.53;1.60;;;16.40;99.90;;;;;;10135310;28;20112;-63
2023/05/11 09:36:55;;;;;;;2.65;1.80;;;16.40;99.90;;;;;;10136582;28;20128;-63
2023/05/11 09:41:46;;;;;;;3.17;1.88;;;16.50;99.90;;;;;;10148909;28;20016;-62
2023/05/11 09:46:38;;;;;;;2.90;1.83;;;16.50;99.90;;;;;;10150645;28;20064;-66
2023/05/11 09:51:37;;;;;;;3.78;1.83;;;16.60;99.90;;;;;;10129928;28;20514;-62
2023/05/11 09:56:55;;;;;;;3.13;1.92;;;16.80;99.90;;;;;;10131236;28;20363;-62
2023/05/11 10:01:46;;;;;;;3.63;2.35;;;16.90;99.90;;;;;;10139192;28;20020;-64
2023/05/11 10:06:48;;;;;;;2.22;1.98;;;17.00;99.90;;;;;;10134668;28;20036;-62
2023/05/11 10:11:44;;;;;;;5.50;2.60;;;17.10;99.90;;;;;;10143490;28;20492;-64
2023/05/11 10:16:35;;;;;;;3.35;2.00;;;17.20;99.90;;;;;;10120102;28;20398;-66
2023/05/11 10:21:26;;;;;;;3.85;2.25;;;17.40;99.90;;;;;;10170860;28;20028;-64
2023/05/11 10:26:17;;;;;;;4.32;2.63;;;17.50;99.90;;;;;;10156895;28;20032;-60
2023/05/11 10:31:08;;;;;;;4.68;2.95;;;17.70;99.90;;;;;;10135034;28;20441;-63
2023/05/11 10:35:59;;;;;;;2.55;1.70;;;17.60;99.90;;;;;;10147921;28;20044;-62
2023/05/11 10:40:53;;;;;;;3.30;2.05;;;17.70;99.90;;;;;;10145872;28;20051;-64
2023/05/11 10:45:49;;;;;;;3.58;2.55;;;17.80;99.90;;;;;;10140002;28;20025;-63
2023/05/11 10:51:11;;;;;;;3.20;2.08;;;17.90;99.90;;;;;;10132147;28;20055;-62
2023/05/11 10:56:12;;;;;;;4.28;2.63;;;17.40;99.90;;;;;;10146382;28;20045;-66
2023/05/11 11:01:20;;;;;;;4.38;2.00;;;17.30;99.90;;;;;;10139290;28;20024;-64
2023/05/11 11:06:27;;;;;;;4.50;2.30;;;17.30;99.90;;;;;;10138803;28;20033;-64
2023/05/11 11:11:49;;;;;;;2.53;2.30;;;17.40;99.90;;;;;;10143713;28;20464;-64
2023/05/11 11:17:00;;;;;;;4.22;2.47;;;17.40;99.90;;;;;;10119122;28;20178;-65
2023/05/11 11:21:51;;;;;;;4.93;1.92;;;17.30;99.90;;;;;;10135304;28;20529;-62
2023/05/11 11:26:47;;;;;;;3.05;1.83;;;17.40;99.90;;;;;;10143151;28;20040;-60
2023/05/11 11:31:39;;;;;;;2.45;1.58;;;17.30;99.90;;;;;;10149272;28;20037;-63
2023/05/11 11:37:12;;;;;;;3.28;2.25;;;17.60;99.90;;;;;;10126627;28;20039;-61
2023/05/11 11:42:05;;;;;;;3.65;2.25;;;17.30;99.90;;;;;;9985186;28;20578;-62
2023/05/11 11:47:16;;;;;;;3.25;1.85;;;17.80;99.90;;;;;;10107466;28;20169;-61
2023/05/11 11:52:33;;;;;;;3.63;2.03;;;18.10;99.90;;;;;;10141371;28;20452;-61
2023/05/11 11:57:42;;;;;;;3.45;1.92;;;18.50;99.90;;;;;;10132683;28;20128;-64
2023/05/11 12:02:33;;;;;;;3.38;2.25;;;18.50;99.90;;;;;;10150305;28;20525;-64
2023/05/11 12:07:25;;;;;;;3.70;2.97;;;18.20;99.90;;;;;;10137322;28;20020;-63
2023/05/11 12:12:17;;;;;;;5.18;2.10;;;17.90;99.90;;;;;;10151244;28;20398;-67
2023/05/11 12:17:12;;;;;;;3.85;2.83;;;18.10;99.90;;;;;;10161445;28;20187;-65
2023/05/11 12:22:03;;;;;;;3.45;2.10;;;18.10;99.90;;;;;;10169132;28;20382;-64
2023/05/11 12:26:56;;;;;;;5.35;2.83;;;18.30;99.90;;;;;;10149140;28;20036;-66
2023/05/11 12:31:47;;;;;;;5.68;2.30;;;18.90;99.90;;;;;;10163902;28;20031;-66
2023/05/11 12:36:38;;;;;;;5.70;2.67;;;18.80;99.90;;;;;;10165534;28;20032;-66
2023/05/11 12:41:29;;;;;;;5.85;3.47;;;19.00;99.90;;;;;;10157029;28;20104;-64
2023/05/11 12:46:21;;;;;;;4.53;2.75;;;19.40;99.90;;;;;;10160447;28;20096;-62
2023/05/11 12:51:11;;;;;;;3.78;2.72;;;19.40;99.90;;;;;;10155360;28;20044;-66
2023/05/11 12:56:03;;;;;;;6.13;3.55;;;19.90;99.90;;;;;;10158152;28;20036;-63
2023/05/11 13:00:55;;;;;;;4.93;2.60;;;20.30;99.80;;;;;;10148121;28;20024;-65
2023/05/11 13:05:46;;;;;;;3.17;2.40;;;20.70;99.30;;;;;;10130109;28;20029;-63
2023/05/11 13:10:37;;;;;;;5.68;2.90;;;21.60;98.70;;;;;;10157774;28;20024;-65
2023/05/11 13:15:28;;;;;;;5.20;3.40;;;22.30;98.30;;;;;;10151386;28;20039;-64
2023/05/11 13:20:22;;;;;;;4.43;2.92;;;24.40;97.50;;;;;;10149220;28;20044;-60
2023/05/11 13:25:15;;;;;;;3.88;2.28;;;25.70;96.90;;;;;;10135778;28;20474;-63
2023/05/11 13:30:06;;;;;;;2.73;2.00;;;25.30;96.00;;;;;;10172592;28;20486;-64
2023/05/11 13:34:59;;;;;;;4.45;2.42;;;22.80;97.00;;;;;;10137371;28;20033;-64
2023/05/11 13:39:50;;;;;;;2.95;2.60;;;21.00;97.50;;;;;;10163346;28;20485;-66
2023/05/11 13:44:40;;;;;;;5.70;2.35;;;19.60;97.70;;;;;;10169414;28;20020;-66
2023/05/11 13:49:31;;;;;;;5.05;2.75;;;18.30;98.60;;;;;;10151856;28;20099;-65
2023/05/11 13:54:22;;;;;;;5.53;2.50;;;17.20;99.50;;;;;;10147667;28;20052;-64
2023/05/11 13:59:12;;;;;;;8.45;3.22;;;16.80;99.50;;;;;;10132906;28;20506;-62
2023/05/11 14:04:03;;;;;;;5.75;3.45;;;16.70;99.40;;;;;;10148974;28;20025;-66
2023/05/11 14:08:54;;;;;;;5.72;2.40;;;16.80;99.30;;;;;;10118976;28;20028;-64
2023/05/11 14:13:44;;;;;;;3.72;2.15;;;16.80;99.40;;;;;;10168814;28;20055;-62
2023/05/11 14:18:35;;;;;;;3.55;2.53;;;16.90;99.50;;;;;;10159112;28;20021;-63
2023/05/11 14:23:26;;;;;;;2.95;2.30;;;16.70;99.60;;;;;;10147990;28;20039;-63
2023/05/11 14:28:16;;;;;;;5.45;2.92;;;16.70;99.80;;;;;;10169261;28;20116;-64
2023/05/11 14:33:07;;;;;;;4.43;2.60;;;16.60;99.90;;;;;;10141263;28;20044;-64
2023/05/11 14:37:58;;;;;;;4.50;2.42;;;16.60;99.90;;;;;;10177199;28;20053;-66
2023/05/11 14:42:48;;;;;;;4.97;2.92;;;16.60;99.90;;;;;;10156426;28;20039;-64
2023/05/11 14:47:39;;;;;;;4.80;2.47;;;16.70;99.90;;;;;;10127892;28;20133;-65
2023/05/11 14:52:30;;;;;;;3.40;2.90;;;16.70;99.90;;;;;;10141889;28;20059;-66
2023/05/11 14:57:21;;;;;;;5.30;2.28;;;16.90;99.90;;;;;;10159903;28;20036;-65
2023/05/11 15:02:11;;;;;;;5.97;2.67;;;17.20;99.90;;;;;;10175158;28;20102;-63
2023/05/11 15:07:02;;;;;;;7.50;3.53;;;17.30;99.90;;;;;;10137591;28;20086;-62
2023/05/11 15:11:53;;;;;;;5.22;2.75;;;17.40;99.90;;;;;;10160863;28;20108;-61
2023/05/11 15:16:44;;;;;;;6.50;3.35;;;17.50;99.90;;;;;;10154153;28;20040;-63
2023/05/11 15:21:35;;;;;;;5.10;2.67;;;17.40;99.90;;;;;;10162939;28;20104;-63
2023/05/11 15:26:25;;;;;;;6.72;2.78;;;17.70;99.90;;;;;;10153258;28;20032;-62
2023/05/11 15:31:16;;;;;;;5.20;2.28;;;17.90;99.90;;;;;;10159772;28;20067;-61
2023/05/11 15:36:11;;;;;;;4.10;2.78;;;18.00;99.90;;;;;;10161472;28;20068;-63
2023/05/11 15:41:02;;;;;;;7.32;2.88;;;18.00;99.90;;;;;;10156764;28;20036;-61
2023/05/11 15:45:53;;;;;;;4.63;2.25;;;18.10;99.90;;;;;;10165291;28;20032;-62
2023/05/11 15:50:44;;;;;;;3.47;2.42;;;18.10;99.90;;;;;;10157503;28;20050;-65
2023/05/11 15:55:35;;;;;;;3.17;2.33;;;18.10;99.90;;;;;;10153180;28;20100;-61
2023/05/11 16:00:26;;;;;;;3.28;2.63;;;18.30;99.90;;;;;;10148013;28;20048;-60
2023/05/11 16:05:17;;;;;;;5.13;2.70;;;18.50;99.90;;;;;;10137335;28;20037;-61
2023/05/11 16:10:08;;;;;;;3.85;2.33;;;18.70;99.90;;;;;;10154536;28;20388;-61
2023/05/11 16:14:58;;;;;;;4.13;2.75;;;18.80;99.90;;;;;;10151958;28;20051;-63
2023/05/11 16:19:49;;;;;;;5.55;2.88;;;19.00;99.90;;;;;;10161119;28;20024;-63
2023/05/11 16:24:40;;;;;;;6.20;2.95;;;18.70;99.90;;;;;;10138168;28;20032;-61
2023/05/11 16:29:30;;;;;;;3.70;2.63;;;18.30;99.90;;;;;;10151708;28;20031;-62
2023/05/11 16:34:21;;;;;;;3.47;2.47;;;18.40;99.90;;;;;;10166405;28;20040;-67
2023/05/11 16:39:12;;;;;;;4.07;3.05;;;18.50;99.90;;;;;;10147813;28;20072;-63
2023/05/11 16:44:03;;;;;;;4.32;2.92;;;18.40;99.90;;;;;;10155473;28;20027;-66
2023/05/11 16:48:53;;;;;;;4.45;3.08;;;18.30;99.90;;;;;;10140535;28;20028;-66
2023/05/11 16:53:45;;;;;;;6.43;3.10;;;18.10;99.90;;;;;;10155147;28;20088;-65
2023/05/11 16:58:36;;;;;;;4.72;2.53;;;18.30;99.90;;;;;;10138284;28;20032;-64
2023/05/11 17:03:26;;;;;;;4.88;2.33;;;18.10;99.90;;;;;;10155592;28;20035;-67
2023/05/11 17:08:17;;;;;;;6.65;2.75;;;18.20;99.90;;;;;;10145140;28;20131;-63
2023/05/11 17:13:08;;;;;;;6.15;2.78;;;18.40;99.90;;;;;;10153303;28;20068;-64
2023/05/11 17:17:58;;;;;;;5.43;2.90;;;19.00;99.90;;;;;;10149476;28;20020;-63
2023/05/11 17:22:49;;;;;;;3.03;2.35;;;18.60;99.90;;;;;;10142821;28;20492;-63
2023/05/11 17:27:40;;;;;;;3.40;2.40;;;18.40;99.90;;;;;;10156111;28;20028;-63
2023/05/11 17:32:31;;;;;;;4.90;2.20;;;18.20;99.90;;;;;;10156422;28;20047;-65
2023/05/11 17:37:21;;;;;;;5.28;2.40;;;18.00;99.90;;;;;;10144074;28;20105;-63
2023/05/11 17:42:12;;;;;;;3.28;2.50;;;17.90;99.90;;;;;;10131996;28;20029;-62
2023/05/11 17:47:04;;;;;;;4.63;2.80;;;17.80;99.90;;;;;;10150477;28;20035;-63
2023/05/11 17:51:55;;;;;;;5.03;3.10;;;17.80;99.90;;;;;;10154392;28;20047;-64
2023/05/11 17:56:45;;;;;;;5.00;2.60;;;17.90;99.90;;;;;;10134872;28;20044;-62
2023/05/11 18:01:36;;;;;;;4.22;2.40;;;18.00;99.90;;;;;;10163335;28;20112;-64
2023/05/11 18:06:26;;;;;;;3.83;2.30;;;18.00;99.90;;;;;;10124477;28;20032;-64
2023/05/11 18:11:17;;;;;;;5.30;2.85;;;17.90;99.90;;;;;;10152139;28;20085;-64
2023/05/11 18:16:08;;;;;;;4.25;2.33;;;17.60;99.90;;;;;;10166686;28;20037;-63
2023/05/11 18:21:06;;;;;;;7.32;2.50;;;17.40;99.90;;;;;;10149195;28;20028;-64
2023/05/11 18:25:57;;;;;;;4.43;1.98;;;17.30;99.90;;;;;;10156951;28;20119;-64
2023/05/11 18:30:47;;;;;;;3.17;1.92;;;17.20;99.90;;;;;;10166246;28;20104;-64
2023/05/11 18:35:39;;;;;;;2.58;1.80;;;17.00;99.90;;;;;;10143647;28;20043;-65
2023/05/11 18:40:30;;;;;;;5.13;1.90;;;17.00;99.90;;;;;;10137759;28;20028;-66
2023/05/11 18:45:20;;;;;;;3.45;1.60;;;16.90;99.90;;;;;;10141676;28;20066;-64
2023/05/11 18:50:11;;;;;;;5.25;1.60;;;16.70;99.90;;;;;;10143057;28;20047;-65
2023/05/11 18:55:02;;;;;;;1.70;1.10;;;16.40;99.90;;;;;;10145664;28;20045;-72
2023/05/11 18:59:53;;;;;;;1.50;1.20;;;16.10;99.90;;;;;;10134896;28;20028;-66
2023/05/11 19:04:44;;;;;;;2.55;1.35;;;15.80;99.90;;;;;;10134295;28;20483;-69
2023/05/11 19:09:34;;;;;;;1.95;1.15;;;15.60;99.90;;;;;;10144767;28;20071;-64
2023/05/11 19:14:25;;;;;;;4.93;2.33;;;15.40;99.90;;;;;;10138318;28;20055;-68
2023/05/11 19:19:16;;;;;;;5.68;2.42;;;15.30;99.90;;;;;;10139312;28;20064;-66
2023/05/11 19:24:07;;;;;;;2.92;2.05;;;15.30;99.90;;;;;;10142605;28;20028;-63
2023/05/11 19:28:58;;;;;;;3.25;2.40;;;15.20;99.90;;;;;;10142080;28;20039;-64
2023/05/11 19:33:49;;;;;;;3.83;1.95;;;15.30;99.90;;;;;;10104833;28;20041;-64
2023/05/11 19:38:39;;;;;;;6.40;1.83;;;15.40;99.90;;;;;;10114333;28;20031;-64
2023/05/11 19:43:30;;;;;;;4.10;2.53;;;15.50;99.90;;;;;;10130928;28;20024;-62
2023/05/11 19:48:21;;;;;;;3.63;2.03;;;15.60;99.90;;;;;;10132875;28;20027;-63
2023/05/11 19:53:12;;;;;;;5.15;2.30;;;15.60;99.90;;;;;;10128267;28;20068;-63
2023/05/11 19:58:02;;;;;;;2.55;1.58;;;15.60;99.90;;;;;;10121760;28;20421;-64
2023/05/11 20:02:54;;;;;;;5.28;2.20;;;15.70;99.90;;;;;;10118425;28;20021;-67
2023/05/11 20:07:44;;;;;;;4.70;2.42;;;15.70;99.90;;;;;;10134116;28;20025;-62
2023/05/11 20:12:36;;;;;;;2.58;1.58;;;15.70;99.90;;;;;;10138109;28;20479;-62
2023/05/11 20:17:27;;;;;;;2.47;1.55;;;15.60;99.90;;;;;;10136952;28;20061;-62
2023/05/11 20:22:18;;;;;;;4.18;1.50;;;15.60;99.90;;;;;;10127228;28;20580;-62
2023/05/11 20:27:09;;;;;;;4.00;1.10;;;15.60;99.90;;;;;;10145362;28;20209;-62
2023/05/11 20:32:00;;;;;;;1.80;1.20;;;15.50;99.90;;;;;;10154182;28;20103;-62
2023/05/11 20:36:52;;;;;;;3.58;1.95;;;15.40;99.90;;;;;;10155482;28;20040;-63
2023/05/11 20:41:43;;;;;;;2.28;1.05;;;15.50;99.90;;;;;;10160128;28;20026;-64
2023/05/11 20:46:34;;;;;;;1.38;1.15;;;15.40;99.90;;;;;;10121102;28;20550;-61
2023/05/11 20:51:24;;;;;;;1.98;1.42;;;15.30;99.90;;;;;;10150979;28;20049;-61
2023/05/11 20:56:15;;;;;;;1.73;1.20;;;15.20;99.90;;;;;;10159699;28;20032;-59
2023/05/11 21:01:06;;;;;;;2.88;1.70;;;15.30;99.90;;;;;;10167711;28;20490;-61
2023/05/11 21:05:57;;;;;;;2.53;1.75;;;15.20;99.90;;;;;;10138813;28;20463;-63
2023/05/11 21:10:48;;;;;;;2.40;1.77;;;15.30;99.90;;;;;;10135105;28;20112;-63
2023/05/11 21:15:39;;;;;;;2.47;1.63;;;15.20;99.90;;;;;;10141228;28;20036;-64
2023/05/11 21:20:29;;;;;;;3.17;1.80;;;15.20;99.90;;;;;;10147916;28;20117;-63
2023/05/11 21:25:20;;;;;;;3.05;1.92;;;15.20;99.90;;;;;;10144223;28;20039;-64
2023/05/11 21:30:11;;;;;;;2.70;1.65;;;15.10;99.90;;;;;;10155304;28;20021;-64
2023/05/11 21:35:02;;;;;;;6.90;3.38;;;15.00;99.90;;;;;;10159311;28;20398;-63
2023/05/11 21:39:53;;;;;;;4.70;2.55;;;15.10;99.90;;;;;;10168441;28;20016;-63
2023/05/11 21:44:44;;;;;;;5.38;2.45;;;15.00;99.90;;;;;;10158139;28;20035;-63
2023/05/11 21:49:35;;;;;;;4.03;2.10;;;14.90;99.90;;;;;;10156020;28;20050;-63
2023/05/11 21:54:26;;;;;;;3.30;2.10;;;14.80;99.90;;;;;;10164709;28;20101;-63
2023/05/11 21:59:18;;;;;;;3.50;1.83;;;14.80;99.90;;;;;;10174001;28;20086;-63
2023/05/11 22:04:09;;;;;;;4.38;2.47;;;14.70;99.90;;;;;;10145723;28;20031;-60
2023/05/11 22:09:00;;;;;;;2.50;1.88;;;14.90;99.90;;;;;;10143821;28;20032;-62
2023/05/11 22:13:50;;;;;;;2.45;1.90;;;14.90;99.90;;;;;;10147157;28;20036;-65
2023/05/11 22:18:41;;;;;;;3.63;2.38;;;14.90;99.90;;;;;;10138509;28;20557;-61
2023/05/11 22:23:33;;;;;;;3.85;2.42;;;14.90;99.90;;;;;;10155073;28;20035;-64
2023/05/11 22:28:23;;;;;;;3.67;2.42;;;14.80;99.90;;;;;;10141716;28;20024;-63
2023/05/11 22:33:14;;;;;;;4.97;2.13;;;14.70;99.90;;;;;;10162988;28;20490;-62
2023/05/11 22:38:04;;;;;;;3.50;2.33;;;14.70;99.90;;;;;;10173926;28;20393;-62
2023/05/11 22:42:55;;;;;;;3.75;2.78;;;14.70;99.90;;;;;;10142422;28;20459;-61
2023/05/11 22:47:46;;;;;;;4.43;2.40;;;14.60;99.90;;;;;;10149465;28;20086;-64
2023/05/11 22:52:37;;;;;;;3.00;2.22;;;14.70;99.90;;;;;;10160175;28;20435;-62
2023/05/11 22:57:27;;;;;;;3.63;2.72;;;14.70;99.90;;;;;;10161560;28;20111;-62
2023/05/11 23:02:18;;;;;;;3.78;2.65;;;14.70;99.90;;;;;;10158561;28;20040;-64
2023/05/11 23:07:11;;;;;;;4.88;3.00;;;14.80;99.90;;;;;;10156742;28;20070;-65
2023/05/11 23:12:02;;;;;;;5.50;2.53;;;14.70;99.90;;;;;;10143656;28;20503;-62
2023/05/11 23:16:53;;;;;;;3.88;2.58;;;14.60;99.90;;;;;;10131532;28;20198;-62
2023/05/11 23:21:43;;;;;;;4.30;3.03;;;14.50;99.90;;;;;;10152893;28;20490;-64
2023/05/11 23:26:35;;;;;;;5.43;2.67;;;14.60;99.90;;;;;;10154526;28;20040;-61
2023/05/11 23:31:27;;;;;;;6.90;3.60;;;14.60;99.90;;;;;;10160759;28;20026;-63
2023/05/11 23:36:17;;;;;;;4.13;2.92;;;14.50;99.90;;;;;;10155228;28;20113;-62
2023/05/11 23:41:08;;;;;;;4.85;3.20;;;14.60;99.90;;;;;;10146466;28;20032;-62
2023/05/11 23:46:00;;;;;;;5.88;3.67;;;14.40;99.90;;;;;;10138880;28;20543;-64
2023/05/11 23:50:50;;;;;;;4.75;2.92;;;14.40;99.90;;;;;;10141694;28;20041;-63
2023/05/11 23:55:41;;;;;;;8.52;3.88;;;14.40;99.90;;;;;;10137256;28;20041;-63
